createdAt,value
2017-10-26T00:02:03.549Z,97874.41
2017-10-26T00:04:31.352Z,97875.75
2017-10-26T00:06:58.894Z,97873.91
2017-10-26T00:09:26.303Z,97875.13
2017-10-26T00:11:54.173Z,97875.06
2017-10-26T00:14:21.647Z,97878.82
2017-10-26T00:16:49.079Z,97884.72
2017-10-26T00:19:16.641Z,97883.73
2017-10-26T00:21:44.051Z,97880.81
2017-10-26T00:24:11.486Z,97881.20
2017-10-26T00:26:38.945Z,97886.02
2017-10-26T00:29:06.397Z,97891.66
2017-10-26T00:31:33.833Z,97894.43
2017-10-26T00:34:01.293Z,97890.96
2017-10-26T00:36:28.721Z,97892.77
2017-10-26T00:38:56.166Z,97888.48
2017-10-26T00:41:23.605Z,97883.53
2017-10-26T00:43:51.113Z,97886.23
2017-10-26T00:46:18.517Z,97880.01
2017-10-26T00:48:46.031Z,97884.63
2017-10-26T00:51:13.482Z,97878.48
2017-10-26T00:53:41.080Z,97885.67
2017-10-26T00:56:08.579Z,97889.36
2017-10-26T00:58:36.092Z,97885.89
2017-10-26T01:01:04.556Z,97892.18
2017-10-26T01:03:32.144Z,97892.55
2017-10-26T01:05:59.673Z,97902.00
2017-10-26T01:08:27.187Z,97900.30
2017-10-26T01:10:54.690Z,97901.64
2017-10-26T01:13:22.192Z,97898.86
2017-10-26T01:15:49.617Z,97893.77
2017-10-26T01:18:17.473Z,97897.97
2017-10-26T01:20:44.898Z,97894.62
2017-10-26T01:23:13.041Z,97891.95
2017-10-26T01:25:40.702Z,97892.48
2017-10-26T01:28:08.233Z,97885.89
2017-10-26T01:30:35.686Z,97887.61
2017-10-26T01:33:03.188Z,97894.16
2017-10-26T01:35:30.678Z,97895.23
2017-10-26T01:37:58.366Z,97894.94
2017-10-26T01:40:25.879Z,97890.06
2017-10-26T01:42:53.308Z,97894.06
2017-10-26T01:45:20.764Z,97895.21
2017-10-26T01:47:48.249Z,97881.77
2017-10-26T01:50:15.698Z,97889.54
2017-10-26T01:52:43.133Z,97886.58
2017-10-26T01:55:10.612Z,97884.55
2017-10-26T01:57:38.071Z,97885.36
2017-10-26T02:00:05.711Z,97880.19
2017-10-26T02:02:33.422Z,97881.48
2017-10-26T02:05:01.816Z,97882.55
2017-10-26T02:07:29.257Z,97886.50
2017-10-26T02:09:56.722Z,97889.15
2017-10-26T02:12:24.276Z,97887.66
2017-10-26T02:14:51.817Z,97887.11
2017-10-26T02:17:19.301Z,97886.73
2017-10-26T02:19:46.810Z,97887.36
2017-10-26T02:22:14.320Z,97883.56
2017-10-26T02:24:41.872Z,97883.13
2017-10-26T02:27:09.304Z,97879.27
2017-10-26T02:29:48.622Z,97875.63
2017-10-26T02:32:16.091Z,97872.77
2017-10-26T02:34:43.659Z,97868.13
2017-10-26T02:37:11.160Z,97871.13
2017-10-26T02:39:38.620Z,97874.70
2017-10-26T02:42:06.126Z,97873.20
2017-10-26T02:44:33.605Z,97880.48
2017-10-26T02:47:01.138Z,97878.11
2017-10-26T02:49:28.660Z,97879.41
2017-10-26T02:51:57.095Z,97878.07
2017-10-26T02:54:24.554Z,97872.23
2017-10-26T02:56:51.979Z,97871.40
2017-10-26T02:59:19.795Z,97869.20
2017-10-26T03:01:47.305Z,97875.67
2017-10-26T03:04:14.746Z,97875.23
2017-10-26T03:06:42.307Z,97869.92
2017-10-26T03:09:09.796Z,97868.05
2017-10-26T03:11:37.209Z,97866.80
2017-10-26T03:14:05.526Z,97859.73
2017-10-26T03:16:32.988Z,97867.72
2017-10-26T03:19:00.463Z,97863.21
2017-10-26T03:21:27.991Z,97872.45
2017-10-26T03:23:55.452Z,97870.95
2017-10-26T03:26:22.912Z,97873.85
2017-10-26T03:28:50.460Z,97882.13
2017-10-26T03:31:17.921Z,97887.66
2017-10-26T03:33:45.432Z,97896.11
2017-10-26T03:36:12.951Z,97897.80
2017-10-26T03:38:40.462Z,97887.43
2017-10-26T03:41:08.013Z,97892.50
2017-10-26T03:43:35.605Z,97881.06
2017-10-26T03:46:03.037Z,97881.48
2017-10-26T03:48:31.384Z,97881.52
2017-10-26T03:50:59.259Z,97881.28
2017-10-26T03:53:26.734Z,97868.98
2017-10-26T03:55:54.276Z,97868.20
2017-10-26T03:58:21.815Z,97871.97
2017-10-26T04:00:49.381Z,97873.51
2017-10-26T04:03:16.843Z,97878.05
2017-10-26T04:05:44.357Z,97875.81
2017-10-26T04:08:11.860Z,97872.08
2017-10-26T04:10:39.406Z,97866.28
2017-10-26T04:13:07.180Z,97862.28
2017-10-26T04:15:34.703Z,97871.31
2017-10-26T04:18:02.292Z,97881.83
2017-10-26T04:20:29.938Z,97890.23
2017-10-26T04:22:57.457Z,97887.30
2017-10-26T04:25:24.945Z,97879.39
2017-10-26T04:27:52.615Z,97884.27
2017-10-26T04:30:20.066Z,97887.53
2017-10-26T04:32:47.519Z,97888.00
2017-10-26T04:35:15.547Z,97884.96
2017-10-26T04:37:43.035Z,97886.89
2017-10-26T04:40:10.594Z,97885.19
2017-10-26T04:42:38.201Z,97885.72
2017-10-26T04:45:06.177Z,97886.52
2017-10-26T04:47:33.658Z,97890.48
2017-10-26T04:50:01.128Z,97900.52
2017-10-26T04:52:28.614Z,97897.78
2017-10-26T04:54:56.074Z,97890.36
2017-10-26T04:57:23.602Z,97894.59
2017-10-26T04:59:51.143Z,97889.72
2017-10-26T05:02:18.610Z,97896.09
2017-10-26T05:04:46.432Z,97893.09
2017-10-26T05:07:13.845Z,97887.21
2017-10-26T05:09:41.427Z,97890.10
2017-10-26T05:12:09.079Z,97900.82
2017-10-26T05:14:37.111Z,97890.05
2017-10-26T05:17:04.606Z,97894.41
2017-10-26T05:19:32.134Z,97886.14
2017-10-26T05:21:59.575Z,97885.47
2017-10-26T05:24:27.024Z,97888.95
2017-10-26T05:26:54.736Z,97893.55
2017-10-26T05:29:22.266Z,97890.23
2017-10-26T05:31:49.695Z,97889.77
2017-10-26T05:34:17.167Z,97882.45
2017-10-26T05:36:44.855Z,97881.66
2017-10-26T05:39:12.342Z,97877.62
2017-10-26T05:41:39.790Z,97881.20
2017-10-26T05:44:07.261Z,97874.79
2017-10-26T05:46:34.778Z,97883.22
2017-10-26T05:49:02.237Z,97883.63
2017-10-26T05:51:29.695Z,97890.03
2017-10-26T05:53:57.199Z,97895.89
2017-10-26T05:56:25.161Z,97899.48
2017-10-26T05:58:52.619Z,97902.19
2017-10-26T06:01:20.199Z,97906.52
2017-10-26T06:03:47.707Z,97907.60
2017-10-26T06:06:15.291Z,97906.25
2017-10-26T06:08:42.817Z,97900.59
2017-10-26T06:11:10.474Z,97902.66
2017-10-26T06:13:37.914Z,97906.09
2017-10-26T06:16:05.999Z,97906.98
2017-10-26T06:18:33.463Z,97913.00
2017-10-26T06:21:00.941Z,97913.59
2017-10-26T06:23:28.357Z,97916.62
2017-10-26T06:25:56.030Z,97916.41
2017-10-26T06:28:23.470Z,97927.94
2017-10-26T06:30:50.954Z,97921.66
2017-10-26T06:33:18.435Z,97920.00
2017-10-26T06:35:45.977Z,97922.64
2017-10-26T06:38:13.467Z,97922.63
2017-10-26T06:40:41.060Z,97921.45
2017-10-26T06:43:08.524Z,97917.05
2017-10-26T06:45:36.127Z,97906.49
2017-10-26T06:48:03.602Z,97912.56
2017-10-26T06:50:31.036Z,97913.67
2017-10-26T06:52:58.472Z,97921.34
2017-10-26T06:55:26.003Z,97914.06
2017-10-26T06:57:53.498Z,97916.77
2017-10-26T07:00:20.955Z,97918.31
2017-10-26T07:02:48.599Z,97921.72
2017-10-26T07:05:16.097Z,97921.23
2017-10-26T07:07:43.589Z,97922.59
2017-10-26T07:10:11.081Z,97924.37
2017-10-26T07:12:39.159Z,97926.13
2017-10-26T07:15:06.580Z,97923.80
2017-10-26T07:17:34.185Z,97923.69
2017-10-26T07:20:01.653Z,97926.89
2017-10-26T07:22:29.102Z,97924.66
2017-10-26T07:24:57.183Z,97926.36
2017-10-26T07:27:24.638Z,97932.88
2017-10-26T07:29:52.061Z,97933.52
2017-10-26T07:32:19.514Z,97926.64
2017-10-26T07:34:47.008Z,97929.28
2017-10-26T07:37:14.469Z,97927.94
2017-10-26T07:39:41.939Z,97932.47
2017-10-26T07:42:09.401Z,97933.39
2017-10-26T07:44:36.839Z,97932.43
2017-10-26T07:47:04.758Z,97931.97
2017-10-26T07:49:32.166Z,97925.03
2017-10-26T07:51:59.617Z,97923.80
2017-10-26T07:54:27.178Z,97924.73
2017-10-26T07:56:54.638Z,97926.30
2017-10-26T07:59:22.205Z,97926.72
2017-10-26T08:01:49.964Z,97922.67
2017-10-26T08:04:17.451Z,97927.16
2017-10-26T08:06:44.962Z,97931.55
2017-10-26T08:09:12.426Z,97930.81
2017-10-26T08:11:39.880Z,97921.08
2017-10-26T08:14:07.474Z,97921.33
2017-10-26T08:16:35.053Z,97921.78
2017-10-26T08:19:02.512Z,97921.93
2017-10-26T08:21:30.019Z,97920.89
2017-10-26T08:23:57.853Z,97927.10
2017-10-26T08:26:25.338Z,97924.59
2017-10-26T08:28:52.970Z,97925.80
2017-10-26T08:31:20.545Z,97921.07
2017-10-26T08:33:48.085Z,97922.91
2017-10-26T08:36:15.565Z,97926.31
2017-10-26T08:38:43.115Z,97924.73
2017-10-26T08:41:10.606Z,97924.82
2017-10-26T08:43:38.113Z,97921.59
2017-10-26T08:46:05.694Z,97923.00
2017-10-26T08:48:33.165Z,97911.55
2017-10-26T08:51:00.719Z,97911.38
2017-10-26T08:53:28.241Z,97909.56
2017-10-26T08:55:55.755Z,97909.84
2017-10-26T08:58:23.275Z,97908.99
2017-10-26T09:00:50.919Z,97909.81
2017-10-26T09:03:18.390Z,97918.77
2017-10-26T09:05:46.255Z,97914.48
2017-10-26T09:08:13.864Z,97912.30
2017-10-26T09:10:41.324Z,97911.90
2017-10-26T09:13:08.849Z,97908.78
2017-10-26T09:15:36.401Z,97902.59
2017-10-26T09:18:03.871Z,97908.45
2017-10-26T09:20:31.344Z,97911.58
2017-10-26T09:22:59.289Z,97911.23
2017-10-26T09:25:26.893Z,97910.81
2017-10-26T09:27:55.286Z,97909.94
2017-10-26T09:30:22.788Z,97909.18
2017-10-26T09:32:55.972Z,97911.02
2017-10-26T09:35:23.560Z,97907.20
2017-10-26T09:37:51.098Z,97906.06
2017-10-26T09:40:19.059Z,97898.77
2017-10-26T09:42:46.620Z,97903.63
2017-10-26T09:45:14.117Z,97897.03
2017-10-26T09:47:45.332Z,97900.91
2017-10-26T09:50:12.940Z,97893.76
2017-10-26T09:52:40.478Z,97899.00
2017-10-26T09:55:07.926Z,97903.33
2017-10-26T09:57:35.495Z,97897.28
2017-10-26T10:00:03.948Z,97897.17
2017-10-26T10:02:31.590Z,97895.48
2017-10-26T10:04:59.153Z,97901.55
2017-10-26T10:07:27.342Z,97893.30
2017-10-26T10:09:54.886Z,97892.23
2017-10-26T10:12:22.538Z,97891.31
2017-10-26T10:14:50.009Z,97895.14
2017-10-26T10:17:17.521Z,97890.00
2017-10-26T10:19:45.038Z,97886.84
2017-10-26T10:22:12.575Z,97889.54
2017-10-26T10:24:40.036Z,97890.00
2017-10-26T10:27:07.735Z,97891.52
2017-10-26T10:29:35.292Z,97884.50
2017-10-26T10:32:02.932Z,97886.17
2017-10-26T10:34:30.403Z,97875.05
2017-10-26T10:36:57.976Z,97876.95
2017-10-26T10:39:25.485Z,97877.67
2017-10-26T10:41:53.091Z,97875.80
2017-10-26T10:44:20.622Z,97873.42
2017-10-26T10:46:48.075Z,97872.48
2017-10-26T10:49:15.697Z,97867.80
2017-10-26T10:51:43.195Z,97865.22
2017-10-26T10:54:10.677Z,97863.17
2017-10-26T10:56:38.267Z,97855.05
2017-10-26T10:59:11.270Z,97855.35
2017-10-26T11:01:39.019Z,97851.22
2017-10-26T11:04:06.651Z,97853.53
2017-10-26T11:09:00.907Z,97845.47
2017-10-26T11:11:28.522Z,97852.02
2017-10-26T11:13:55.979Z,97841.92
2017-10-26T11:16:23.453Z,97844.55
2017-10-26T11:18:50.989Z,97846.23
2017-10-26T11:21:18.616Z,97841.30
2017-10-26T11:23:46.086Z,97845.37
2017-10-26T11:26:13.575Z,97842.89
2017-10-26T11:28:41.102Z,97843.65
2017-10-26T11:31:08.560Z,97836.80
2017-10-26T11:33:36.113Z,97825.34
2017-10-26T11:36:03.564Z,97822.36
2017-10-26T11:38:31.058Z,97825.50
2017-10-26T11:40:58.920Z,97818.89
2017-10-26T11:43:26.363Z,97814.25
2017-10-26T11:45:53.826Z,97810.92
2017-10-26T11:48:21.327Z,97811.08
2017-10-26T11:50:48.795Z,97807.05
2017-10-26T11:53:16.783Z,97803.84
2017-10-26T11:55:44.229Z,97803.41
2017-10-26T11:58:11.714Z,97802.56
2017-10-26T12:00:39.209Z,97800.25
2017-10-26T12:03:06.829Z,97796.45
2017-10-26T12:05:34.376Z,97796.42
2017-10-26T12:08:01.841Z,97788.69
2017-10-26T12:10:29.738Z,97786.08
2017-10-26T12:12:57.166Z,97782.30
2017-10-26T12:15:24.712Z,97779.84
2017-10-26T12:17:52.426Z,97773.33
2017-10-26T12:20:19.854Z,97770.30
2017-10-26T12:22:47.376Z,97769.30
2017-10-26T12:25:15.251Z,97765.43
2017-10-26T12:27:42.718Z,97757.06
2017-10-26T12:30:10.150Z,97763.30
2017-10-26T12:32:37.644Z,97757.45
2017-10-26T12:35:05.109Z,97751.39
2017-10-26T12:37:32.641Z,97750.65
2017-10-26T12:40:00.232Z,97749.76
2017-10-26T12:42:27.771Z,97747.97
2017-10-26T12:44:55.252Z,97745.03
2017-10-26T12:47:22.768Z,97738.77
2017-10-26T12:49:50.218Z,97734.83
2017-10-26T12:52:17.693Z,97733.77
2017-10-26T12:54:45.274Z,97730.24
2017-10-26T12:57:12.897Z,97730.17
2017-10-26T12:59:40.347Z,97730.78
2017-10-26T13:02:08.090Z,97731.91
2017-10-26T13:04:35.581Z,97733.28
2017-10-26T13:07:03.058Z,97732.07
2017-10-26T13:09:30.611Z,97725.23
2017-10-26T13:11:58.169Z,97725.78
2017-10-26T13:14:28.803Z,97715.72
2017-10-26T13:16:57.180Z,97715.88
2017-10-26T13:19:24.654Z,97714.74
2017-10-26T13:21:52.205Z,97718.41
2017-10-26T13:24:19.742Z,97714.11
2017-10-26T13:26:47.200Z,97709.45
2017-10-26T13:29:14.656Z,97707.47
2017-10-26T13:31:42.211Z,97704.20
2017-10-26T13:34:09.662Z,97706.74
2017-10-26T13:36:38.127Z,97702.51
2017-10-26T13:39:05.716Z,97704.02
2017-10-26T13:41:33.309Z,97702.19
2017-10-26T13:44:00.762Z,97694.88
2017-10-26T13:46:28.342Z,97699.36
2017-10-26T13:48:55.792Z,97696.99
2017-10-26T13:51:23.334Z,97694.20
2017-10-26T13:53:50.861Z,97691.08
2017-10-26T13:56:18.335Z,97693.02
2017-10-26T13:58:45.793Z,97690.11
2017-10-26T14:01:14.455Z,97691.09
2017-10-26T14:03:42.201Z,97693.71
2017-10-26T14:06:09.761Z,97694.89
2017-10-26T14:08:38.254Z,97686.44
2017-10-26T14:11:05.722Z,97684.75
2017-10-26T14:13:33.166Z,97687.97
2017-10-26T14:16:00.626Z,97691.66
2017-10-26T14:18:28.127Z,97686.55
2017-10-26T14:20:55.634Z,97681.77
2017-10-26T14:23:23.130Z,97684.41
2017-10-26T14:25:50.812Z,97679.62
2017-10-26T14:28:18.439Z,97678.92
2017-10-26T14:30:45.999Z,97684.97
2017-10-26T14:33:13.593Z,97676.87
2017-10-26T14:35:41.039Z,97676.36
2017-10-26T14:38:08.564Z,97677.40
2017-10-26T14:40:36.108Z,97673.01
2017-10-26T14:43:03.806Z,97672.72
2017-10-26T14:45:31.385Z,97669.41
2017-10-26T14:47:59.001Z,97663.73
2017-10-26T14:50:26.728Z,97667.23
2017-10-26T14:52:54.498Z,97665.11
2017-10-26T14:55:22.340Z,97669.36
2017-10-26T14:57:50.033Z,97663.88
2017-10-26T15:00:17.678Z,97667.16
2017-10-26T15:02:45.332Z,97673.67
2017-10-26T15:05:12.904Z,97668.27
2017-10-26T15:07:42.496Z,97673.82
2017-10-26T15:10:10.292Z,97675.80
2017-10-26T15:12:37.926Z,97679.91
2017-10-26T15:15:05.599Z,97675.40
2017-10-26T15:17:36.208Z,97678.66
2017-10-26T15:20:03.753Z,97684.81
2017-10-26T15:22:31.548Z,97682.55
2017-10-26T15:24:59.150Z,97680.33
2017-10-26T15:27:27.673Z,97681.73
2017-10-26T15:29:55.732Z,97692.27
2017-10-26T15:32:23.390Z,97692.94
2017-10-26T15:34:50.947Z,97691.21
2017-10-26T15:37:20.013Z,97696.16
2017-10-26T15:39:47.887Z,97696.91
2017-10-26T15:42:16.795Z,97692.89
2017-10-26T15:44:44.536Z,97690.63
2017-10-26T15:47:12.093Z,97697.09
2017-10-26T15:49:39.725Z,97697.50
2017-10-26T15:52:07.743Z,97697.39
2017-10-26T15:54:35.344Z,97702.27
2017-10-26T15:57:03.104Z,97696.27
2017-10-26T15:59:31.040Z,97693.38
2017-10-26T16:01:59.560Z,97702.06
2017-10-26T16:04:27.459Z,97701.21
2017-10-26T16:06:55.087Z,97698.91
2017-10-26T16:09:22.581Z,97700.78
2017-10-26T16:11:50.304Z,97699.63
2017-10-26T16:14:17.901Z,97696.32
2017-10-26T16:16:45.477Z,97704.16
2017-10-26T16:19:13.025Z,97698.50
2017-10-26T16:21:41.085Z,97700.41
2017-10-26T16:24:08.915Z,97709.75
2017-10-26T16:26:36.541Z,97705.89
2017-10-26T16:29:04.277Z,97697.31
2017-10-26T16:31:32.023Z,97700.70
2017-10-26T16:33:59.602Z,97702.58
2017-10-26T16:36:27.532Z,97700.26
2017-10-26T16:38:55.184Z,97706.43
2017-10-26T16:41:22.861Z,97707.29
2017-10-26T16:43:51.856Z,97708.11
2017-10-26T16:46:26.495Z,97711.90
2017-10-26T16:48:55.783Z,97708.41
2017-10-26T16:51:23.387Z,97717.59
2017-10-26T16:53:51.020Z,97720.30
2017-10-26T16:56:19.679Z,97720.84
2017-10-26T16:58:47.669Z,97723.14
2017-10-26T17:01:15.451Z,97720.66
2017-10-26T17:03:43.151Z,97726.78
2017-10-26T17:06:10.839Z,97726.18
2017-10-26T17:08:38.441Z,97727.36
2017-10-26T17:11:06.035Z,97727.87
2017-10-26T17:13:34.876Z,97729.95
2017-10-26T17:16:02.516Z,97733.75
2017-10-26T17:18:31.961Z,97736.52
2017-10-26T17:20:59.807Z,97740.19
2017-10-26T17:23:28.372Z,97733.27
2017-10-26T17:25:56.154Z,97733.61
2017-10-26T17:28:30.844Z,97734.97
2017-10-26T17:30:58.630Z,97737.25
2017-10-26T17:33:27.313Z,97735.79
2017-10-26T17:35:56.774Z,97735.15
2017-10-26T17:38:25.224Z,97744.02
2017-10-26T17:40:52.811Z,97732.69
2017-10-26T17:43:20.438Z,97738.37
2017-10-26T17:45:48.186Z,97741.42
2017-10-26T17:48:26.162Z,97734.92
2017-10-26T17:53:33.361Z,97739.53
2017-10-26T17:56:01.089Z,97739.98
2017-10-26T17:58:29.432Z,97746.70
2017-10-26T18:03:36.548Z,97748.41
2017-10-26T18:06:06.118Z,97751.53
2017-10-26T18:08:34.090Z,97751.23
2017-10-26T18:11:01.683Z,97750.84
2017-10-26T18:13:29.322Z,97751.87
2017-10-26T18:15:56.883Z,97747.93
2017-10-26T18:18:25.164Z,97747.92
2017-10-26T18:20:53.157Z,97739.52
2017-10-26T18:23:20.732Z,97748.97
2017-10-26T18:25:48.367Z,97745.58
2017-10-26T18:28:15.955Z,97744.51
2017-10-26T18:30:43.781Z,97751.39
2017-10-26T18:33:11.397Z,97744.23
2017-10-26T18:35:39.088Z,97743.93
2017-10-26T18:38:07.447Z,97745.01
2017-10-26T18:40:34.953Z,97745.91
2017-10-26T18:45:37.093Z,97743.14
2017-10-26T18:48:04.954Z,97737.14
2017-10-26T18:50:32.603Z,97739.88
2017-10-26T18:53:00.191Z,97740.61
2017-10-26T18:55:27.991Z,97737.83
2017-10-26T18:57:55.706Z,97739.70
2017-10-26T19:00:23.212Z,97736.10
2017-10-26T19:02:51.606Z,97734.97
2017-10-26T19:05:19.298Z,97727.61
2017-10-26T19:07:46.885Z,97732.72
2017-10-26T19:10:14.347Z,97731.14
2017-10-26T19:12:41.864Z,97729.92
2017-10-26T19:15:09.396Z,97733.94
2017-10-26T19:17:36.905Z,97728.44
2017-10-26T19:20:04.627Z,97731.11
2017-10-26T19:22:32.313Z,97726.72
2017-10-26T19:24:59.773Z,97731.77
2017-10-26T19:27:27.661Z,97721.81
2017-10-26T19:29:55.130Z,97724.83
2017-10-26T19:32:22.624Z,97717.75
2017-10-26T19:34:50.150Z,97712.36
2017-10-26T19:37:18.772Z,97713.26
2017-10-26T19:39:46.286Z,97712.41
2017-10-26T19:42:13.948Z,97711.75
2017-10-26T19:44:41.570Z,97711.69
2017-10-26T19:47:09.196Z,97719.29
2017-10-26T19:49:36.953Z,97720.53
2017-10-26T19:52:05.140Z,97712.69
2017-10-26T19:54:32.701Z,97719.06
2017-10-26T19:57:00.296Z,97717.50
2017-10-26T19:59:27.830Z,97713.92
2017-10-26T20:01:55.477Z,97714.70
2017-10-26T20:04:22.986Z,97712.95
2017-10-26T20:06:50.573Z,97713.16
2017-10-26T20:09:18.187Z,97711.27
2017-10-26T20:11:45.799Z,97707.42
2017-10-26T20:14:13.407Z,97701.53
2017-10-26T20:16:41.099Z,97701.20
2017-10-26T20:19:08.707Z,97696.14
2017-10-26T20:21:36.273Z,97702.50
2017-10-26T20:24:03.990Z,97701.78
2017-10-26T20:26:31.690Z,97696.70
2017-10-26T20:28:59.219Z,97700.06
2017-10-26T20:31:26.801Z,97703.58
2017-10-26T20:33:54.348Z,97700.27
2017-10-26T20:36:21.938Z,97700.71
2017-10-26T20:38:49.532Z,97697.98
2017-10-26T20:41:17.181Z,97705.60
2017-10-26T20:43:44.636Z,97695.08
2017-10-26T20:46:12.282Z,97698.86
2017-10-26T20:48:39.793Z,97697.22
2017-10-26T20:54:19.824Z,97700.14
2017-10-26T20:56:52.867Z,97706.34
2017-10-26T20:59:26.056Z,97706.27
2017-10-26T21:01:59.140Z,97706.77
2017-10-26T21:04:32.253Z,97710.64
2017-10-26T21:06:59.759Z,97703.47
2017-10-26T21:09:27.450Z,97702.25
2017-10-26T21:12:00.593Z,97700.06
2017-10-26T21:14:29.003Z,97697.14
2017-10-26T21:16:56.446Z,97696.02
2017-10-26T21:19:23.950Z,97696.75
2017-10-26T21:21:51.464Z,97691.44
2017-10-26T21:24:18.977Z,97697.63
2017-10-26T21:26:46.537Z,97692.15
2017-10-26T21:29:14.044Z,97696.02
2017-10-26T21:31:41.523Z,97700.54
2017-10-26T21:34:09.006Z,97700.19
2017-10-26T21:36:36.482Z,97694.52
2017-10-26T21:39:04.197Z,97693.49
2017-10-26T21:41:31.886Z,97694.16
2017-10-26T21:43:59.541Z,97699.83
2017-10-26T21:46:27.053Z,97697.03
2017-10-26T21:48:54.530Z,97698.17
2017-10-26T21:51:22.248Z,97693.92
2017-10-26T21:53:49.712Z,97691.01
2017-10-26T21:56:17.910Z,97699.24
2017-10-26T21:58:45.390Z,97693.80
2017-10-26T22:01:13.053Z,97694.80
2017-10-26T22:03:40.609Z,97683.08
2017-10-26T22:06:08.071Z,97685.72
2017-10-26T22:08:35.585Z,97679.66
2017-10-26T22:11:03.183Z,97674.22
2017-10-26T22:13:30.720Z,97666.38
2017-10-26T22:15:58.227Z,97672.41
2017-10-26T22:18:25.732Z,97669.49
2017-10-26T22:20:53.226Z,97666.22
2017-10-26T22:23:20.800Z,97661.77
2017-10-26T22:25:48.266Z,97666.62
2017-10-26T22:28:15.901Z,97663.16
2017-10-26T22:30:43.578Z,97657.79
2017-10-26T22:33:11.125Z,97659.68
2017-10-26T22:35:38.786Z,97653.73
2017-10-26T22:38:06.674Z,97662.39
2017-10-26T22:40:34.631Z,97663.26
2017-10-26T22:43:02.188Z,97659.79
2017-10-26T22:45:30.433Z,97663.77
2017-10-26T22:47:58.032Z,97663.69
2017-10-26T22:50:25.582Z,97664.91
2017-10-26T22:52:53.118Z,97661.83
2017-10-26T22:55:20.597Z,97655.92
2017-10-26T22:57:48.164Z,97658.55
2017-10-26T23:00:15.725Z,97659.39
2017-10-26T23:02:43.270Z,97657.22
2017-10-26T23:05:10.725Z,97657.77
2017-10-26T23:07:38.182Z,97660.35
2017-10-26T23:10:05.781Z,97658.08
2017-10-26T23:12:33.268Z,97661.93
2017-10-26T23:15:00.847Z,97663.70
2017-10-26T23:17:28.400Z,97662.66
2017-10-26T23:19:55.879Z,97656.72
2017-10-26T23:22:23.352Z,97662.02
2017-10-26T23:24:50.913Z,97658.69
2017-10-26T23:27:18.469Z,97667.02
2017-10-26T23:29:46.020Z,97668.44
2017-10-26T23:32:13.580Z,97665.34
2017-10-26T23:34:41.126Z,97662.43
2017-10-26T23:37:08.591Z,97659.52
2017-10-26T23:39:36.080Z,97657.89
2017-10-26T23:42:03.600Z,97664.69
2017-10-26T23:44:31.069Z,97653.09
2017-10-26T23:46:58.732Z,97655.45
2017-10-26T23:49:26.180Z,97646.89
2017-10-26T23:51:53.713Z,97645.97
2017-10-26T23:54:21.295Z,97646.80
2017-10-26T23:56:48.841Z,97644.13
2017-10-26T23:59:16.316Z,97639.64
